sensor_id;sensor_type;location;lat;lon;timestamp;P1;durP1;ratioP1;P2;durP2;ratioP2
29500;SDS011;16450;50.288;10.966;2023-04-03T00:02:08;8.60;;;6.20;;
29500;SDS011;16450;50.288;10.966;2023-04-03T00:05:10;10.67;;;6.83;;
29500;SDS011;16450;50.288;10.966;2023-04-03T00:08:12;9.80;;;6.47;;
29500;SDS011;16450;50.288;10.966;2023-04-03T00:11:13;10.53;;;6.87;;
29500;SDS011;16450;50.288;10.966;2023-04-03T00:14:16;9.77;;;6.40;;
29500;SDS011;16450;50.288;10.966;2023-04-03T00:17:18;9.47;;;6.40;;
29500;SDS011;16450;50.288;10.966;2023-04-03T00:20:20;8.87;;;6.30;;
29500;SDS011;16450;50.288;10.966;2023-04-03T00:23:22;10.40;;;5.93;;
29500;SDS011;16450;50.288;10.966;2023-04-03T00:26:24;12.30;;;6.17;;
29500;SDS011;16450;50.288;10.966;2023-04-03T00:29:26;9.67;;;5.83;;
29500;SDS011;16450;50.288;10.966;2023-04-03T00:32:28;10.67;;;6.10;;
29500;SDS011;16450;50.288;10.966;2023-04-03T00:35:30;12.07;;;6.17;;
29500;SDS011;16450;50.288;10.966;2023-04-03T00:38:32;10.67;;;5.90;;
29500;SDS011;16450;50.288;10.966;2023-04-03T00:41:33;11.73;;;6.10;;
29500;SDS011;16450;50.288;10.966;2023-04-03T00:47:38;11.60;;;5.70;;
29500;SDS011;16450;50.288;10.966;2023-04-03T00:50:42;10.97;;;5.93;;
29500;SDS011;16450;50.288;10.966;2023-04-03T00:56:54;8.30;;;5.57;;
29500;SDS011;16450;50.288;10.966;2023-04-03T00:59:59;9.60;;;5.40;;
29500;SDS011;16450;50.288;10.966;2023-04-03T01:03:05;10.30;;;4.97;;
29500;SDS011;16450;50.288;10.966;2023-04-03T01:06:07;11.17;;;5.30;;
29500;SDS011;16450;50.288;10.966;2023-04-03T01:09:09;9.77;;;5.60;;
29500;SDS011;16450;50.288;10.966;2023-04-03T01:15:27;8.30;;;5.10;;
29500;SDS011;16450;50.288;10.966;2023-04-03T01:18:37;8.43;;;5.47;;
29500;SDS011;16450;50.288;10.966;2023-04-03T01:21:48;8.10;;;5.10;;
29500;SDS011;16450;50.288;10.966;2023-04-03T01:25:14;8.63;;;5.03;;
29500;SDS011;16450;50.288;10.966;2023-04-03T01:28:17;11.80;;;5.23;;
29500;SDS011;16450;50.288;10.966;2023-04-03T01:31:25;9.77;;;5.17;;
29500;SDS011;16450;50.288;10.966;2023-04-03T01:34:30;8.97;;;5.30;;
29500;SDS011;16450;50.288;10.966;2023-04-03T01:37:32;9.23;;;5.10;;
29500;SDS011;16450;50.288;10.966;2023-04-03T01:40:34;8.33;;;5.30;;
29500;SDS011;16450;50.288;10.966;2023-04-03T01:43:36;9.20;;;5.07;;
29500;SDS011;16450;50.288;10.966;2023-04-03T01:46:38;7.93;;;5.07;;
29500;SDS011;16450;50.288;10.966;2023-04-03T01:49:40;8.20;;;4.80;;
29500;SDS011;16450;50.288;10.966;2023-04-03T01:52:42;8.27;;;4.77;;
29500;SDS011;16450;50.288;10.966;2023-04-03T01:55:44;8.17;;;4.80;;
29500;SDS011;16450;50.288;10.966;2023-04-03T01:58:46;10.67;;;5.13;;
29500;SDS011;16450;50.288;10.966;2023-04-03T02:01:48;9.77;;;4.60;;
29500;SDS011;16450;50.288;10.966;2023-04-03T02:04:50;10.30;;;5.17;;
29500;SDS011;16450;50.288;10.966;2023-04-03T02:07:52;6.87;;;4.57;;
29500;SDS011;16450;50.288;10.966;2023-04-03T02:10:54;7.23;;;4.37;;
29500;SDS011;16450;50.288;10.966;2023-04-03T02:13:56;11.67;;;4.43;;
29500;SDS011;16450;50.288;10.966;2023-04-03T02:16:59;6.43;;;4.43;;
29500;SDS011;16450;50.288;10.966;2023-04-03T02:20:02;8.67;;;4.57;;
29500;SDS011;16450;50.288;10.966;2023-04-03T02:23:04;9.33;;;4.73;;
29500;SDS011;16450;50.288;10.966;2023-04-03T02:26:08;7.30;;;4.30;;
29500;SDS011;16450;50.288;10.966;2023-04-03T02:29:15;11.20;;;4.60;;
29500;SDS011;16450;50.288;10.966;2023-04-03T02:32:17;8.03;;;4.67;;
29500;SDS011;16450;50.288;10.966;2023-04-03T02:35:19;7.07;;;4.27;;
29500;SDS011;16450;50.288;10.966;2023-04-03T02:38:22;9.93;;;4.50;;
29500;SDS011;16450;50.288;10.966;2023-04-03T02:41:24;7.37;;;4.70;;
29500;SDS011;16450;50.288;10.966;2023-04-03T02:44:29;8.17;;;4.90;;
29500;SDS011;16450;50.288;10.966;2023-04-03T02:47:30;7.57;;;4.80;;
29500;SDS011;16450;50.288;10.966;2023-04-03T02:50:32;6.20;;;4.07;;
29500;SDS011;16450;50.288;10.966;2023-04-03T02:53:35;5.63;;;4.30;;
29500;SDS011;16450;50.288;10.966;2023-04-03T02:56:37;8.90;;;4.90;;
29500;SDS011;16450;50.288;10.966;2023-04-03T02:59:39;8.60;;;4.73;;
29500;SDS011;16450;50.288;10.966;2023-04-03T03:02:41;9.47;;;4.50;;
29500;SDS011;16450;50.288;10.966;2023-04-03T03:05:43;6.33;;;4.60;;
29500;SDS011;16450;50.288;10.966;2023-04-03T03:08:45;7.37;;;4.53;;
29500;SDS011;16450;50.288;10.966;2023-04-03T03:11:47;7.70;;;4.53;;
29500;SDS011;16450;50.288;10.966;2023-04-03T03:14:48;8.60;;;5.03;;
29500;SDS011;16450;50.288;10.966;2023-04-03T03:17:50;10.60;;;4.97;;
29500;SDS011;16450;50.288;10.966;2023-04-03T03:20:53;9.40;;;4.90;;
29500;SDS011;16450;50.288;10.966;2023-04-03T03:23:56;8.70;;;5.17;;
29500;SDS011;16450;50.288;10.966;2023-04-03T03:26:58;8.33;;;5.50;;
29500;SDS011;16450;50.288;10.966;2023-04-03T03:29:59;9.93;;;4.90;;
29500;SDS011;16450;50.288;10.966;2023-04-03T03:33:01;11.67;;;5.47;;
29500;SDS011;16450;50.288;10.966;2023-04-03T03:36:03;7.57;;;5.10;;
29500;SDS011;16450;50.288;10.966;2023-04-03T03:39:05;10.10;;;5.50;;
29500;SDS011;16450;50.288;10.966;2023-04-03T03:42:07;10.57;;;5.03;;
29500;SDS011;16450;50.288;10.966;2023-04-03T03:45:09;7.47;;;5.50;;
29500;SDS011;16450;50.288;10.966;2023-04-03T03:48:11;8.97;;;5.13;;
29500;SDS011;16450;50.288;10.966;2023-04-03T03:51:13;9.27;;;4.90;;
29500;SDS011;16450;50.288;10.966;2023-04-03T03:54:15;10.70;;;5.63;;
29500;SDS011;16450;50.288;10.966;2023-04-03T03:57:17;10.23;;;5.20;;
29500;SDS011;16450;50.288;10.966;2023-04-03T04:00:19;7.90;;;5.43;;
29500;SDS011;16450;50.288;10.966;2023-04-03T04:03:21;11.23;;;6.00;;
29500;SDS011;16450;50.288;10.966;2023-04-03T04:06:23;11.83;;;5.57;;
29500;SDS011;16450;50.288;10.966;2023-04-03T04:09:25;9.07;;;5.30;;
29500;SDS011;16450;50.288;10.966;2023-04-03T04:12:27;8.07;;;5.20;;
29500;SDS011;16450;50.288;10.966;2023-04-03T04:15:29;6.43;;;4.87;;
29500;SDS011;16450;50.288;10.966;2023-04-03T04:18:31;11.97;;;5.33;;
29500;SDS011;16450;50.288;10.966;2023-04-03T04:21:33;10.07;;;5.50;;
29500;SDS011;16450;50.288;10.966;2023-04-03T04:24:35;9.50;;;5.40;;
29500;SDS011;16450;50.288;10.966;2023-04-03T04:27:39;9.03;;;5.30;;
29500;SDS011;16450;50.288;10.966;2023-04-03T04:30:41;8.13;;;5.53;;
29500;SDS011;16450;50.288;10.966;2023-04-03T04:33:43;8.87;;;5.10;;
29500;SDS011;16450;50.288;10.966;2023-04-03T04:36:45;10.67;;;5.77;;
29500;SDS011;16450;50.288;10.966;2023-04-03T04:39:47;8.40;;;5.37;;
29500;SDS011;16450;50.288;10.966;2023-04-03T04:42:49;9.93;;;5.57;;
29500;SDS011;16450;50.288;10.966;2023-04-03T04:45:59;8.63;;;5.47;;
29500;SDS011;16450;50.288;10.966;2023-04-03T04:49:05;9.10;;;5.70;;
29500;SDS011;16450;50.288;10.966;2023-04-03T04:52:07;7.70;;;5.37;;
29500;SDS011;16450;50.288;10.966;2023-04-03T04:55:09;11.37;;;6.07;;
29500;SDS011;16450;50.288;10.966;2023-04-03T04:58:11;9.43;;;5.50;;
29500;SDS011;16450;50.288;10.966;2023-04-03T05:01:12;11.13;;;5.87;;
29500;SDS011;16450;50.288;10.966;2023-04-03T05:04:15;11.53;;;6.13;;
29500;SDS011;16450;50.288;10.966;2023-04-03T05:07:17;12.97;;;6.20;;
29500;SDS011;16450;50.288;10.966;2023-04-03T05:10:18;13.87;;;6.53;;
29500;SDS011;16450;50.288;10.966;2023-04-03T05:13:22;13.93;;;6.17;;
29500;SDS011;16450;50.288;10.966;2023-04-03T05:16:24;12.50;;;6.90;;
29500;SDS011;16450;50.288;10.966;2023-04-03T05:19:26;12.30;;;6.97;;
29500;SDS011;16450;50.288;10.966;2023-04-03T05:22:28;11.83;;;6.97;;
29500;SDS011;16450;50.288;10.966;2023-04-03T05:25:30;10.63;;;6.33;;
29500;SDS011;16450;50.288;10.966;2023-04-03T05:28:32;12.40;;;5.97;;
29500;SDS011;16450;50.288;10.966;2023-04-03T05:31:34;11.57;;;5.90;;
29500;SDS011;16450;50.288;10.966;2023-04-03T05:34:36;8.83;;;5.20;;
29500;SDS011;16450;50.288;10.966;2023-04-03T05:37:38;9.13;;;5.07;;
29500;SDS011;16450;50.288;10.966;2023-04-03T05:40:41;13.23;;;6.23;;
29500;SDS011;16450;50.288;10.966;2023-04-03T05:43:43;15.23;;;6.13;;
29500;SDS011;16450;50.288;10.966;2023-04-03T05:46:45;10.83;;;6.37;;
29500;SDS011;16450;50.288;10.966;2023-04-03T05:49:47;10.43;;;6.53;;
29500;SDS011;16450;50.288;10.966;2023-04-03T05:52:49;10.40;;;6.20;;
29500;SDS011;16450;50.288;10.966;2023-04-03T05:55:53;8.97;;;6.00;;
29500;SDS011;16450;50.288;10.966;2023-04-03T05:58:55;9.77;;;5.87;;
29500;SDS011;16450;50.288;10.966;2023-04-03T06:01:58;9.47;;;5.63;;
29500;SDS011;16450;50.288;10.966;2023-04-03T06:05:00;10.17;;;6.30;;
29500;SDS011;16450;50.288;10.966;2023-04-03T06:08:02;12.53;;;6.70;;
29500;SDS011;16450;50.288;10.966;2023-04-03T06:11:04;10.83;;;6.40;;
29500;SDS011;16450;50.288;10.966;2023-04-03T06:14:06;9.10;;;5.70;;
29500;SDS011;16450;50.288;10.966;2023-04-03T06:17:08;12.13;;;6.40;;
29500;SDS011;16450;50.288;10.966;2023-04-03T06:20:10;11.17;;;6.63;;
29500;SDS011;16450;50.288;10.966;2023-04-03T06:23:13;11.17;;;6.47;;
29500;SDS011;16450;50.288;10.966;2023-04-03T06:26:15;11.03;;;6.33;;
29500;SDS011;16450;50.288;10.966;2023-04-03T06:29:17;12.37;;;6.37;;
29500;SDS011;16450;50.288;10.966;2023-04-03T06:32:19;11.27;;;6.53;;
29500;SDS011;16450;50.288;10.966;2023-04-03T06:35:21;11.43;;;6.37;;
29500;SDS011;16450;50.288;10.966;2023-04-03T06:38:25;12.90;;;6.07;;
29500;SDS011;16450;50.288;10.966;2023-04-03T06:41:27;13.20;;;6.00;;
29500;SDS011;16450;50.288;10.966;2023-04-03T06:44:28;10.73;;;6.27;;
29500;SDS011;16450;50.288;10.966;2023-04-03T06:47:30;10.27;;;6.00;;
29500;SDS011;16450;50.288;10.966;2023-04-03T06:50:32;14.20;;;6.10;;
29500;SDS011;16450;50.288;10.966;2023-04-03T06:53:34;11.00;;;5.60;;
29500;SDS011;16450;50.288;10.966;2023-04-03T06:56:36;10.60;;;6.07;;
29500;SDS011;16450;50.288;10.966;2023-04-03T06:59:38;9.30;;;5.57;;
29500;SDS011;16450;50.288;10.966;2023-04-03T07:02:40;10.47;;;5.60;;
29500;SDS011;16450;50.288;10.966;2023-04-03T07:05:42;9.53;;;5.90;;
29500;SDS011;16450;50.288;10.966;2023-04-03T07:08:46;9.57;;;5.40;;
29500;SDS011;16450;50.288;10.966;2023-04-03T07:11:49;10.67;;;5.80;;
29500;SDS011;16450;50.288;10.966;2023-04-03T07:14:51;10.67;;;5.57;;
29500;SDS011;16450;50.288;10.966;2023-04-03T07:17:52;15.50;;;6.00;;
29500;SDS011;16450;50.288;10.966;2023-04-03T07:20:54;9.30;;;5.40;;
29500;SDS011;16450;50.288;10.966;2023-04-03T07:23:56;9.20;;;5.40;;
29500;SDS011;16450;50.288;10.966;2023-04-03T07:26:58;9.93;;;5.50;;
29500;SDS011;16450;50.288;10.966;2023-04-03T07:30:00;11.57;;;5.20;;
29500;SDS011;16450;50.288;10.966;2023-04-03T07:33:02;12.30;;;5.40;;
29500;SDS011;16450;50.288;10.966;2023-04-03T07:36:04;9.30;;;5.43;;
29500;SDS011;16450;50.288;10.966;2023-04-03T07:39:08;9.87;;;5.53;;
29500;SDS011;16450;50.288;10.966;2023-04-03T07:42:10;9.47;;;5.30;;
29500;SDS011;16450;50.288;10.966;2023-04-03T07:45:13;9.83;;;5.10;;
29500;SDS011;16450;50.288;10.966;2023-04-03T07:48:15;9.30;;;5.63;;
29500;SDS011;16450;50.288;10.966;2023-04-03T07:51:18;9.77;;;5.40;;
29500;SDS011;16450;50.288;10.966;2023-04-03T07:54:20;13.07;;;5.63;;
29500;SDS011;16450;50.288;10.966;2023-04-03T07:57:22;7.50;;;5.00;;
29500;SDS011;16450;50.288;10.966;2023-04-03T08:00:24;8.73;;;5.10;;
29500;SDS011;16450;50.288;10.966;2023-04-03T08:03:26;13.30;;;5.00;;
29500;SDS011;16450;50.288;10.966;2023-04-03T08:06:28;7.10;;;4.20;;
29500;SDS011;16450;50.288;10.966;2023-04-03T08:09:46;7.27;;;4.40;;
29500;SDS011;16450;50.288;10.966;2023-04-03T08:12:48;7.90;;;4.03;;
29500;SDS011;16450;50.288;10.966;2023-04-03T08:15:50;7.87;;;3.93;;
29500;SDS011;16450;50.288;10.966;2023-04-03T08:18:52;8.53;;;4.07;;
29500;SDS011;16450;50.288;10.966;2023-04-03T08:21:54;6.70;;;3.97;;
29500;SDS011;16450;50.288;10.966;2023-04-03T08:24:57;6.43;;;3.40;;
29500;SDS011;16450;50.288;10.966;2023-04-03T08:28:00;5.73;;;3.00;;
29500;SDS011;16450;50.288;10.966;2023-04-03T08:31:04;6.10;;;3.23;;
29500;SDS011;16450;50.288;10.966;2023-04-03T08:34:07;6.13;;;3.30;;
29500;SDS011;16450;50.288;10.966;2023-04-03T08:37:10;7.33;;;3.40;;
29500;SDS011;16450;50.288;10.966;2023-04-03T08:40:13;5.80;;;2.90;;
29500;SDS011;16450;50.288;10.966;2023-04-03T08:43:37;5.70;;;3.00;;
29500;SDS011;16450;50.288;10.966;2023-04-03T08:47:10;6.50;;;2.70;;
29500;SDS011;16450;50.288;10.966;2023-04-03T08:50:28;6.97;;;2.70;;
29500;SDS011;16450;50.288;10.966;2023-04-03T08:53:36;5.10;;;2.47;;
29500;SDS011;16450;50.288;10.966;2023-04-03T08:56:43;5.07;;;2.20;;
29500;SDS011;16450;50.288;10.966;2023-04-03T08:59:46;4.87;;;2.23;;
29500;SDS011;16450;50.288;10.966;2023-04-03T09:02:52;4.23;;;2.30;;
29500;SDS011;16450;50.288;10.966;2023-04-03T09:09:33;4.63;;;2.20;;
29500;SDS011;16450;50.288;10.966;2023-04-03T09:12:41;5.40;;;1.90;;
29500;SDS011;16450;50.288;10.966;2023-04-03T09:15:48;4.83;;;2.10;;
29500;SDS011;16450;50.288;10.966;2023-04-03T09:22:13;5.93;;;2.40;;
29500;SDS011;16450;50.288;10.966;2023-04-03T09:25:49;4.93;;;2.10;;
29500;SDS011;16450;50.288;10.966;2023-04-03T09:28:56;4.87;;;2.20;;
29500;SDS011;16450;50.288;10.966;2023-04-03T09:32:02;5.77;;;2.70;;
29500;SDS011;16450;50.288;10.966;2023-04-03T09:35:21;4.13;;;2.10;;
29500;SDS011;16450;50.288;10.966;2023-04-03T09:38:57;3.97;;;2.30;;
29500;SDS011;16450;50.288;10.966;2023-04-03T09:42:43;6.10;;;2.47;;
29500;SDS011;16450;50.288;10.966;2023-04-03T09:45:46;3.77;;;2.00;;
29500;SDS011;16450;50.288;10.966;2023-04-03T09:48:51;3.67;;;2.10;;
29500;SDS011;16450;50.288;10.966;2023-04-03T09:52:18;5.87;;;2.13;;
29500;SDS011;16450;50.288;10.966;2023-04-03T09:55:27;3.20;;;2.10;;
29500;SDS011;16450;50.288;10.966;2023-04-03T09:58:33;3.47;;;2.10;;
29500;SDS011;16450;50.288;10.966;2023-04-03T10:02:03;4.40;;;2.20;;
29500;SDS011;16450;50.288;10.966;2023-04-03T10:05:36;3.40;;;2.00;;
29500;SDS011;16450;50.288;10.966;2023-04-03T10:08:39;5.50;;;2.27;;
29500;SDS011;16450;50.288;10.966;2023-04-03T10:15:16;3.70;;;1.90;;
29500;SDS011;16450;50.288;10.966;2023-04-03T10:28:10;3.40;;;1.70;;
29500;SDS011;16450;50.288;10.966;2023-04-03T10:34:28;4.70;;;1.60;;
29500;SDS011;16450;50.288;10.966;2023-04-03T10:37:35;3.80;;;1.30;;
29500;SDS011;16450;50.288;10.966;2023-04-03T10:41:06;4.00;;;1.47;;
29500;SDS011;16450;50.288;10.966;2023-04-03T10:47:40;6.97;;;1.93;;
29500;SDS011;16450;50.288;10.966;2023-04-03T10:57:09;3.63;;;1.70;;
29500;SDS011;16450;50.288;10.966;2023-04-03T11:00:21;2.60;;;1.40;;
29500;SDS011;16450;50.288;10.966;2023-04-03T11:03:36;2.67;;;1.37;;
29500;SDS011;16450;50.288;10.966;2023-04-03T11:06:47;4.20;;;1.60;;
29500;SDS011;16450;50.288;10.966;2023-04-03T11:10:00;1.77;;;1.50;;
29500;SDS011;16450;50.288;10.966;2023-04-03T11:13:14;3.40;;;1.63;;
29500;SDS011;16450;50.288;10.966;2023-04-03T11:16:26;3.93;;;1.87;;
29500;SDS011;16450;50.288;10.966;2023-04-03T11:19:38;3.77;;;1.80;;
29500;SDS011;16450;50.288;10.966;2023-04-03T11:22:45;6.03;;;1.90;;
29500;SDS011;16450;50.288;10.966;2023-04-03T11:25:56;3.63;;;2.07;;
29500;SDS011;16450;50.288;10.966;2023-04-03T11:29:31;4.40;;;1.70;;
29500;SDS011;16450;50.288;10.966;2023-04-03T11:32:48;4.53;;;2.03;;
29500;SDS011;16450;50.288;10.966;2023-04-03T11:35:55;3.37;;;1.80;;
29500;SDS011;16450;50.288;10.966;2023-04-03T11:39:26;4.07;;;1.83;;
29500;SDS011;16450;50.288;10.966;2023-04-03T11:42:40;4.30;;;1.83;;
29500;SDS011;16450;50.288;10.966;2023-04-03T11:45:52;5.27;;;1.73;;
29500;SDS011;16450;50.288;10.966;2023-04-03T11:48:57;3.87;;;1.57;;
29500;SDS011;16450;50.288;10.966;2023-04-03T11:51:59;3.13;;;1.70;;
29500;SDS011;16450;50.288;10.966;2023-04-03T11:55:02;4.17;;;1.80;;
29500;SDS011;16450;50.288;10.966;2023-04-03T11:58:33;5.77;;;1.63;;
29500;SDS011;16450;50.288;10.966;2023-04-03T12:02:12;3.73;;;1.37;;
29500;SDS011;16450;50.288;10.966;2023-04-03T12:05:26;2.80;;;1.43;;
29500;SDS011;16450;50.288;10.966;2023-04-03T12:11:35;2.27;;;1.50;;
29500;SDS011;16450;50.288;10.966;2023-04-03T12:14:37;3.37;;;1.80;;
29500;SDS011;16450;50.288;10.966;2023-04-03T12:17:40;1.87;;;1.40;;
29500;SDS011;16450;50.288;10.966;2023-04-03T12:24:01;4.00;;;1.57;;
29500;SDS011;16450;50.288;10.966;2023-04-03T12:27:43;4.97;;;1.50;;
29500;SDS011;16450;50.288;10.966;2023-04-03T12:30:43;4.27;;;1.80;;
29500;SDS011;16450;50.288;10.966;2023-04-03T12:34:07;3.53;;;1.50;;
29500;SDS011;16450;50.288;10.966;2023-04-03T12:44:24;3.97;;;1.50;;
29500;SDS011;16450;50.288;10.966;2023-04-03T12:47:43;4.53;;;2.07;;
29500;SDS011;16450;50.288;10.966;2023-04-03T12:50:46;3.63;;;1.30;;
29500;SDS011;16450;50.288;10.966;2023-04-03T12:53:50;4.30;;;1.70;;
29500;SDS011;16450;50.288;10.966;2023-04-03T12:57:08;5.43;;;1.60;;
29500;SDS011;16450;50.288;10.966;2023-04-03T13:00:19;4.70;;;1.53;;
29500;SDS011;16450;50.288;10.966;2023-04-03T13:03:22;2.23;;;1.10;;
29500;SDS011;16450;50.288;10.966;2023-04-03T13:06:32;6.93;;;1.50;;
29500;SDS011;16450;50.288;10.966;2023-04-03T13:09:40;2.00;;;1.30;;
29500;SDS011;16450;50.288;10.966;2023-04-03T13:12:55;4.17;;;1.60;;
29500;SDS011;16450;50.288;10.966;2023-04-03T13:15:59;4.47;;;1.40;;
29500;SDS011;16450;50.288;10.966;2023-04-03T13:19:17;4.23;;;1.57;;
29500;SDS011;16450;50.288;10.966;2023-04-03T13:25:30;4.83;;;1.60;;
29500;SDS011;16450;50.288;10.966;2023-04-03T13:28:34;4.03;;;1.50;;
29500;SDS011;16450;50.288;10.966;2023-04-03T13:31:38;2.80;;;1.40;;
29500;SDS011;16450;50.288;10.966;2023-04-03T13:34:41;2.73;;;1.30;;
29500;SDS011;16450;50.288;10.966;2023-04-03T13:37:53;3.13;;;1.20;;
29500;SDS011;16450;50.288;10.966;2023-04-03T13:41:02;2.83;;;1.40;;
29500;SDS011;16450;50.288;10.966;2023-04-03T13:47:38;3.50;;;1.57;;
29500;SDS011;16450;50.288;10.966;2023-04-03T13:54:10;4.47;;;1.47;;
29500;SDS011;16450;50.288;10.966;2023-04-03T13:57:21;4.70;;;1.87;;
29500;SDS011;16450;50.288;10.966;2023-04-03T14:00:33;3.37;;;1.40;;
29500;SDS011;16450;50.288;10.966;2023-04-03T14:06:47;1.87;;;1.50;;
29500;SDS011;16450;50.288;10.966;2023-04-03T14:09:50;2.43;;;1.60;;
29500;SDS011;16450;50.288;10.966;2023-04-03T14:12:53;5.27;;;1.80;;
29500;SDS011;16450;50.288;10.966;2023-04-03T14:15:56;3.20;;;1.80;;
29500;SDS011;16450;50.288;10.966;2023-04-03T14:19:18;6.87;;;2.20;;
29500;SDS011;16450;50.288;10.966;2023-04-03T14:22:23;5.47;;;1.60;;
29500;SDS011;16450;50.288;10.966;2023-04-03T14:25:27;6.97;;;1.80;;
29500;SDS011;16450;50.288;10.966;2023-04-03T14:28:29;3.13;;;1.80;;
29500;SDS011;16450;50.288;10.966;2023-04-03T14:31:33;3.13;;;1.70;;
29500;SDS011;16450;50.288;10.966;2023-04-03T14:34:35;4.07;;;1.80;;
29500;SDS011;16450;50.288;10.966;2023-04-03T14:37:37;3.57;;;1.70;;
29500;SDS011;16450;50.288;10.966;2023-04-03T14:40:39;3.70;;;1.87;;
29500;SDS011;16450;50.288;10.966;2023-04-03T14:43:41;3.60;;;2.10;;
29500;SDS011;16450;50.288;10.966;2023-04-03T14:46:44;4.73;;;2.60;;
29500;SDS011;16450;50.288;10.966;2023-04-03T14:49:57;5.87;;;2.00;;
29500;SDS011;16450;50.288;10.966;2023-04-03T14:53:04;4.47;;;1.80;;
29500;SDS011;16450;50.288;10.966;2023-04-03T14:56:22;3.43;;;1.80;;
29500;SDS011;16450;50.288;10.966;2023-04-03T14:59:28;5.03;;;1.80;;
29500;SDS011;16450;50.288;10.966;2023-04-03T15:02:32;4.03;;;2.00;;
29500;SDS011;16450;50.288;10.966;2023-04-03T15:05:36;4.73;;;2.00;;
29500;SDS011;16450;50.288;10.966;2023-04-03T15:08:38;3.97;;;2.30;;
29500;SDS011;16450;50.288;10.966;2023-04-03T15:11:42;4.00;;;1.70;;
29500;SDS011;16450;50.288;10.966;2023-04-03T15:14:44;5.23;;;1.93;;
29500;SDS011;16450;50.288;10.966;2023-04-03T15:17:57;5.87;;;1.80;;
29500;SDS011;16450;50.288;10.966;2023-04-03T15:21:00;4.27;;;2.10;;
29500;SDS011;16450;50.288;10.966;2023-04-03T15:24:03;3.00;;;2.00;;
29500;SDS011;16450;50.288;10.966;2023-04-03T15:27:05;4.87;;;1.87;;
29500;SDS011;16450;50.288;10.966;2023-04-03T15:30:08;3.47;;;1.50;;
29500;SDS011;16450;50.288;10.966;2023-04-03T15:33:15;3.17;;;1.90;;
29500;SDS011;16450;50.288;10.966;2023-04-03T15:36:17;4.30;;;1.87;;
29500;SDS011;16450;50.288;10.966;2023-04-03T15:39:24;7.67;;;3.20;;
29500;SDS011;16450;50.288;10.966;2023-04-03T15:42:26;8.13;;;3.57;;
29500;SDS011;16450;50.288;10.966;2023-04-03T15:45:30;6.83;;;2.43;;
29500;SDS011;16450;50.288;10.966;2023-04-03T15:48:32;4.57;;;2.33;;
29500;SDS011;16450;50.288;10.966;2023-04-03T15:51:34;3.73;;;1.97;;
29500;SDS011;16450;50.288;10.966;2023-04-03T15:54:36;3.30;;;2.17;;
29500;SDS011;16450;50.288;10.966;2023-04-03T15:57:38;3.87;;;1.90;;
29500;SDS011;16450;50.288;10.966;2023-04-03T16:00:45;3.30;;;1.80;;
29500;SDS011;16450;50.288;10.966;2023-04-03T16:03:47;5.77;;;1.70;;
29500;SDS011;16450;50.288;10.966;2023-04-03T16:06:49;2.90;;;1.73;;
29500;SDS011;16450;50.288;10.966;2023-04-03T16:09:51;3.73;;;1.73;;
29500;SDS011;16450;50.288;10.966;2023-04-03T16:12:53;5.33;;;1.93;;
29500;SDS011;16450;50.288;10.966;2023-04-03T16:15:55;4.07;;;2.20;;
29500;SDS011;16450;50.288;10.966;2023-04-03T16:18:57;5.53;;;1.83;;
29500;SDS011;16450;50.288;10.966;2023-04-03T16:21:59;6.23;;;2.30;;
29500;SDS011;16450;50.288;10.966;2023-04-03T16:25:01;6.93;;;2.90;;
29500;SDS011;16450;50.288;10.966;2023-04-03T16:28:04;11.10;;;4.73;;
29500;SDS011;16450;50.288;10.966;2023-04-03T16:31:06;12.17;;;5.60;;
29500;SDS011;16450;50.288;10.966;2023-04-03T16:34:08;10.23;;;3.77;;
29500;SDS011;16450;50.288;10.966;2023-04-03T16:37:10;6.17;;;2.30;;
29500;SDS011;16450;50.288;10.966;2023-04-03T16:40:12;5.80;;;2.67;;
29500;SDS011;16450;50.288;10.966;2023-04-03T16:43:15;10.20;;;4.63;;
29500;SDS011;16450;50.288;10.966;2023-04-03T16:46:17;10.83;;;4.60;;
29500;SDS011;16450;50.288;10.966;2023-04-03T16:49:19;6.53;;;2.63;;
29500;SDS011;16450;50.288;10.966;2023-04-03T16:52:21;9.33;;;2.50;;
29500;SDS011;16450;50.288;10.966;2023-04-03T16:55:23;5.70;;;2.30;;
29500;SDS011;16450;50.288;10.966;2023-04-03T16:58:25;5.63;;;2.67;;
29500;SDS011;16450;50.288;10.966;2023-04-03T17:01:27;7.13;;;2.70;;
29500;SDS011;16450;50.288;10.966;2023-04-03T17:04:28;8.03;;;3.70;;
29500;SDS011;16450;50.288;10.966;2023-04-03T17:07:30;7.13;;;3.50;;
29500;SDS011;16450;50.288;10.966;2023-04-03T17:10:32;4.87;;;2.93;;
29500;SDS011;16450;50.288;10.966;2023-04-03T17:13:36;6.63;;;3.57;;
29500;SDS011;16450;50.288;10.966;2023-04-03T17:16:38;4.57;;;2.53;;
29500;SDS011;16450;50.288;10.966;2023-04-03T17:19:41;6.13;;;2.87;;
29500;SDS011;16450;50.288;10.966;2023-04-03T17:22:44;5.13;;;2.70;;
29500;SDS011;16450;50.288;10.966;2023-04-03T17:25:46;3.97;;;2.23;;
29500;SDS011;16450;50.288;10.966;2023-04-03T17:28:48;4.33;;;2.00;;
29500;SDS011;16450;50.288;10.966;2023-04-03T17:31:50;5.63;;;2.20;;
29500;SDS011;16450;50.288;10.966;2023-04-03T17:34:52;7.37;;;2.23;;
29500;SDS011;16450;50.288;10.966;2023-04-03T17:37:53;7.30;;;2.50;;
29500;SDS011;16450;50.288;10.966;2023-04-03T17:40:56;7.37;;;2.40;;
29500;SDS011;16450;50.288;10.966;2023-04-03T17:43:58;8.07;;;3.10;;
29500;SDS011;16450;50.288;10.966;2023-04-03T17:47:00;3.33;;;2.10;;
29500;SDS011;16450;50.288;10.966;2023-04-03T17:50:03;4.77;;;2.07;;
29500;SDS011;16450;50.288;10.966;2023-04-03T17:53:06;4.53;;;2.53;;
29500;SDS011;16450;50.288;10.966;2023-04-03T17:56:08;6.60;;;2.80;;
29500;SDS011;16450;50.288;10.966;2023-04-03T17:59:15;5.47;;;2.43;;
29500;SDS011;16450;50.288;10.966;2023-04-03T18:02:18;9.47;;;3.53;;
29500;SDS011;16450;50.288;10.966;2023-04-03T18:05:20;5.67;;;2.60;;
29500;SDS011;16450;50.288;10.966;2023-04-03T18:08:22;6.57;;;3.00;;
29500;SDS011;16450;50.288;10.966;2023-04-03T18:11:25;5.57;;;2.70;;
29500;SDS011;16450;50.288;10.966;2023-04-03T18:14:28;11.40;;;4.67;;
29500;SDS011;16450;50.288;10.966;2023-04-03T18:17:30;8.20;;;2.97;;
29500;SDS011;16450;50.288;10.966;2023-04-03T18:20:32;9.63;;;3.87;;
29500;SDS011;16450;50.288;10.966;2023-04-03T18:23:34;15.20;;;5.90;;
29500;SDS011;16450;50.288;10.966;2023-04-03T18:26:40;7.70;;;3.60;;
29500;SDS011;16450;50.288;10.966;2023-04-03T18:29:45;5.87;;;3.27;;
29500;SDS011;16450;50.288;10.966;2023-04-03T18:32:50;7.20;;;2.93;;
29500;SDS011;16450;50.288;10.966;2023-04-03T18:35:52;9.97;;;6.47;;
29500;SDS011;16450;50.288;10.966;2023-04-03T18:38:54;7.20;;;3.90;;
29500;SDS011;16450;50.288;10.966;2023-04-03T18:41:57;8.10;;;4.30;;
29500;SDS011;16450;50.288;10.966;2023-04-03T18:45:04;6.47;;;3.40;;
29500;SDS011;16450;50.288;10.966;2023-04-03T18:48:06;7.93;;;3.70;;
29500;SDS011;16450;50.288;10.966;2023-04-03T18:51:09;7.10;;;4.10;;
29500;SDS011;16450;50.288;10.966;2023-04-03T18:54:12;12.13;;;4.70;;
29500;SDS011;16450;50.288;10.966;2023-04-03T18:57:14;6.43;;;3.77;;
29500;SDS011;16450;50.288;10.966;2023-04-03T19:00:16;5.73;;;3.27;;
29500;SDS011;16450;50.288;10.966;2023-04-03T19:03:18;27.10;;;20.07;;
29500;SDS011;16450;50.288;10.966;2023-04-03T19:06:20;7.07;;;4.30;;
29500;SDS011;16450;50.288;10.966;2023-04-03T19:09:23;7.70;;;3.47;;
29500;SDS011;16450;50.288;10.966;2023-04-03T19:12:26;14.30;;;6.13;;
29500;SDS011;16450;50.288;10.966;2023-04-03T19:15:28;7.60;;;3.40;;
29500;SDS011;16450;50.288;10.966;2023-04-03T19:18:30;13.10;;;6.40;;
29500;SDS011;16450;50.288;10.966;2023-04-03T19:21:32;12.03;;;7.07;;
29500;SDS011;16450;50.288;10.966;2023-04-03T19:24:35;6.97;;;4.10;;